sensor_id;sensor_type;location;lat;lon;timestamp;pressure;altitude;pressure_sealevel;temperature;humidity
61205;BME280;47068;55.780;37.520;2023-05-19T00:01:42;100439.97;;;16.98;67.72
61205;BME280;47068;55.780;37.520;2023-05-19T00:04:13;100467.50;;;17.14;67.63
61205;BME280;47068;55.780;37.520;2023-05-19T00:06:40;100487.59;;;17.18;68.02
61205;BME280;47068;55.780;37.520;2023-05-19T00:09:08;100489.38;;;17.11;67.90
61205;BME280;47068;55.780;37.520;2023-05-19T00:11:34;100497.06;;;17.00;68.08
61205;BME280;47068;55.780;37.520;2023-05-19T00:14:01;100490.78;;;16.92;68.14
61205;BME280;47068;55.780;37.520;2023-05-19T00:16:29;100509.28;;;16.87;68.20
61205;BME280;47068;55.780;37.520;2023-05-19T00:18:56;100479.16;;;16.63;67.90
61205;BME280;47068;55.780;37.520;2023-05-19T00:21:22;100494.44;;;16.62;68.12
61205;BME280;47068;55.780;37.520;2023-05-19T00:23:47;100502.78;;;16.67;68.33
61205;BME280;47068;55.780;37.520;2023-05-19T00:26:13;100514.47;;;16.74;68.02
61205;BME280;47068;55.780;37.520;2023-05-19T00:28:39;100513.47;;;16.75;68.04
61205;BME280;47068;55.780;37.520;2023-05-19T00:31:04;100508.16;;;16.67;67.59
61205;BME280;47068;55.780;37.520;2023-05-19T00:33:30;100481.81;;;16.48;67.72
61205;BME280;47068;55.780;37.520;2023-05-19T00:35:58;100482.19;;;16.60;67.56
61205;BME280;47068;55.780;37.520;2023-05-19T00:38:23;100493.13;;;16.58;66.81
61205;BME280;47068;55.780;37.520;2023-05-19T00:40:49;100518.19;;;16.73;66.40
61205;BME280;47068;55.780;37.520;2023-05-19T00:43:14;100518.47;;;16.78;66.18
61205;BME280;47068;55.780;37.520;2023-05-19T00:45:40;100531.75;;;16.80;65.76
61205;BME280;47068;55.780;37.520;2023-05-19T00:48:05;100518.75;;;16.83;65.64
61205;BME280;47068;55.780;37.520;2023-05-19T00:50:31;100517.75;;;16.84;65.68
61205;BME280;47068;55.780;37.520;2023-05-19T00:52:56;100523.13;;;16.84;65.49
61205;BME280;47068;55.780;37.520;2023-05-19T00:55:25;100515.31;;;16.75;65.26
61205;BME280;47068;55.780;37.520;2023-05-19T00:57:52;100520.16;;;16.79;65.46
61205;BME280;47068;55.780;37.520;2023-05-19T01:00:18;100522.94;;;16.86;65.26
61205;BME280;47068;55.780;37.520;2023-05-19T01:02:43;100499.09;;;16.68;65.06
61205;BME280;47068;55.780;37.520;2023-05-19T01:05:09;100526.16;;;16.81;65.16
61205;BME280;47068;55.780;37.520;2023-05-19T01:07:34;100542.38;;;16.73;65.42
61205;BME280;47068;55.780;37.520;2023-05-19T01:10:01;100540.16;;;16.54;66.30
61205;BME280;47068;55.780;37.520;2023-05-19T01:12:26;100533.41;;;16.21;67.07
61205;BME280;47068;55.780;37.520;2023-05-19T01:14:52;100532.72;;;16.04;67.71
61205;BME280;47068;55.780;37.520;2023-05-19T01:28:47;100553.84;;;15.29;70.55
61205;BME280;47068;55.780;37.520;2023-05-19T01:31:20;100528.44;;;15.17;70.66
61205;BME280;47068;55.780;37.520;2023-05-19T01:33:52;100569.06;;;15.45;70.46
61205;BME280;47068;55.780;37.520;2023-05-19T01:36:22;100571.72;;;15.45;70.69
61205;BME280;47068;55.780;37.520;2023-05-19T01:38:50;100556.03;;;15.33;70.35
61205;BME280;47068;55.780;37.520;2023-05-19T01:41:18;100556.59;;;15.21;69.30
61205;BME280;47068;55.780;37.520;2023-05-19T01:43:47;100585.59;;;15.09;69.07
61205;BME280;47068;55.780;37.520;2023-05-19T01:46:13;100577.94;;;14.90;69.30
61205;BME280;47068;55.780;37.520;2023-05-19T01:48:38;100582.63;;;14.88;69.12
61205;BME280;47068;55.780;37.520;2023-05-19T01:51:05;100588.50;;;14.83;69.53
61205;BME280;47068;55.780;37.520;2023-05-19T01:53:30;100588.00;;;14.72;67.85
61205;BME280;47068;55.780;37.520;2023-05-19T01:55:58;100562.59;;;14.43;66.64
61205;BME280;47068;55.780;37.520;2023-05-19T02:07:04;100607.25;;;13.76;62.96
61205;BME280;47068;55.780;37.520;2023-05-19T02:09:43;100598.53;;;13.66;62.88
61205;BME280;47068;55.780;37.520;2023-05-19T02:12:43;100611.47;;;13.45;63.44
61205;BME280;47068;55.780;37.520;2023-05-19T02:15:13;100616.78;;;13.37;63.01
61205;BME280;47068;55.780;37.520;2023-05-19T02:17:42;100598.88;;;13.29;63.50
61205;BME280;47068;55.780;37.520;2023-05-19T02:20:12;100603.06;;;13.32;63.38
61205;BME280;47068;55.780;37.520;2023-05-19T02:22:39;100578.94;;;13.16;62.68
61205;BME280;47068;55.780;37.520;2023-05-19T02:25:06;100610.09;;;13.33;62.76
61205;BME280;47068;55.780;37.520;2023-05-19T02:27:32;100610.94;;;13.41;63.32
61205;BME280;47068;55.780;37.520;2023-05-19T02:29:58;100610.16;;;13.49;63.04
61205;BME280;47068;55.780;37.520;2023-05-19T02:32:24;100615.69;;;13.56;62.57
61205;BME280;47068;55.780;37.520;2023-05-19T02:34:49;100616.09;;;13.69;62.24
61205;BME280;47068;55.780;37.520;2023-05-19T02:37:15;100591.94;;;13.45;62.08
61205;BME280;47068;55.780;37.520;2023-05-19T02:39:41;100603.53;;;13.61;61.61
61205;BME280;47068;55.780;37.520;2023-05-19T02:42:07;100627.94;;;13.66;61.56
61205;BME280;47068;55.780;37.520;2023-05-19T02:44:32;100625.97;;;13.68;61.63
61205;BME280;47068;55.780;37.520;2023-05-19T02:46:58;100607.81;;;13.46;60.58
61205;BME280;47068;55.780;37.520;2023-05-19T02:49:23;100597.72;;;13.32;61.49
61205;BME280;47068;55.780;37.520;2023-05-19T02:51:49;100609.31;;;13.40;60.84
61205;BME280;47068;55.780;37.520;2023-05-19T02:54:14;100631.59;;;13.57;61.39
61205;BME280;47068;55.780;37.520;2023-05-19T02:56:39;100625.59;;;13.55;61.78
61205;BME280;47068;55.780;37.520;2023-05-19T02:59:05;100633.09;;;13.60;61.29
61205;BME280;47068;55.780;37.520;2023-05-19T03:01:31;100631.91;;;13.54;61.67
61205;BME280;47068;55.780;37.520;2023-05-19T03:04:01;100617.47;;;13.39;62.43
61205;BME280;47068;55.780;37.520;2023-05-19T03:06:27;100636.03;;;13.49;62.55
61205;BME280;47068;55.780;37.520;2023-05-19T03:08:53;100636.03;;;13.40;63.25
61205;BME280;47068;55.780;37.520;2023-05-19T03:11:19;100615.53;;;13.23;63.20
61205;BME280;47068;55.780;37.520;2023-05-19T03:13:44;100633.16;;;13.34;63.79
61205;BME280;47068;55.780;37.520;2023-05-19T03:16:10;100645.53;;;13.43;64.38
61205;BME280;47068;55.780;37.520;2023-05-19T03:18:36;100642.41;;;13.48;64.46
61205;BME280;47068;55.780;37.520;2023-05-19T03:21:02;100646.28;;;13.53;64.69
61205;BME280;47068;55.780;37.520;2023-05-19T03:23:27;100643.06;;;13.50;65.09
61205;BME280;47068;55.780;37.520;2023-05-19T03:25:53;100657.97;;;13.52;64.29
61205;BME280;47068;55.780;37.520;2023-05-19T03:28:20;100654.47;;;13.52;64.83
61205;BME280;47068;55.780;37.520;2023-05-19T03:30:46;100654.31;;;13.53;64.94
61205;BME280;47068;55.780;37.520;2023-05-19T03:33:14;100643.25;;;13.48;65.10
61205;BME280;47068;55.780;37.520;2023-05-19T03:35:39;100647.91;;;13.46;64.37
61205;BME280;47068;55.780;37.520;2023-05-19T03:38:05;100627.06;;;13.24;64.68
61205;BME280;47068;55.780;37.520;2023-05-19T03:40:30;100667.63;;;13.45;65.39
61205;BME280;47068;55.780;37.520;2023-05-19T03:42:56;100677.31;;;13.46;65.65
61205;BME280;47068;55.780;37.520;2023-05-19T03:45:21;100676.47;;;13.46;65.83
61205;BME280;47068;55.780;37.520;2023-05-19T03:47:47;100652.91;;;13.41;66.61
61205;BME280;47068;55.780;37.520;2023-05-19T03:50:12;100655.25;;;13.44;65.96
61205;BME280;47068;55.780;37.520;2023-05-19T03:52:38;100651.38;;;13.38;66.19
61205;BME280;47068;55.780;37.520;2023-05-19T03:55:04;100678.22;;;13.55;66.32
61205;BME280;47068;55.780;37.520;2023-05-19T03:57:31;100678.31;;;13.45;66.60
61205;BME280;47068;55.780;37.520;2023-05-19T03:59:58;100678.41;;;13.35;66.65
61205;BME280;47068;55.780;37.520;2023-05-19T04:02:23;100667.63;;;13.19;66.95
61205;BME280;47068;55.780;37.520;2023-05-19T04:04:49;100673.81;;;13.20;67.54
61205;BME280;47068;55.780;37.520;2023-05-19T04:07:15;100686.16;;;13.21;67.58
61205;BME280;47068;55.780;37.520;2023-05-19T04:09:40;100682.34;;;13.23;67.47
61205;BME280;47068;55.780;37.520;2023-05-19T04:12:06;100688.91;;;13.29;67.58
61205;BME280;47068;55.780;37.520;2023-05-19T04:14:32;100673.69;;;13.29;67.68
61205;BME280;47068;55.780;37.520;2023-05-19T04:16:57;100685.78;;;13.41;67.43
61205;BME280;47068;55.780;37.520;2023-05-19T04:19:23;100675.66;;;13.45;67.35
61205;BME280;47068;55.780;37.520;2023-05-19T04:21:48;100680.06;;;13.54;67.56
61205;BME280;47068;55.780;37.520;2023-05-19T04:24:14;100691.25;;;13.58;67.22
61205;BME280;47068;55.780;37.520;2023-05-19T04:26:39;100693.06;;;13.57;66.16
61205;BME280;47068;55.780;37.520;2023-05-19T04:29:10;100700.09;;;13.58;66.55
61205;BME280;47068;55.780;37.520;2023-05-19T04:31:39;100686.38;;;13.53;66.62
61205;BME280;47068;55.780;37.520;2023-05-19T04:34:05;100698.22;;;13.51;66.84
61205;BME280;47068;55.780;37.520;2023-05-19T04:36:32;100700.91;;;13.51;66.89
61205;BME280;47068;55.780;37.520;2023-05-19T04:38:58;100701.19;;;13.39;67.12
61205;BME280;47068;55.780;37.520;2023-05-19T04:41:29;100707.03;;;13.43;67.76
61205;BME280;47068;55.780;37.520;2023-05-19T04:43:54;100700.63;;;13.36;67.31
61205;BME280;47068;55.780;37.520;2023-05-19T04:46:21;100685.56;;;13.27;67.87
61205;BME280;47068;55.780;37.520;2023-05-19T04:48:49;100700.22;;;13.23;68.16
61205;BME280;47068;55.780;37.520;2023-05-19T04:51:15;100699.72;;;13.19;68.18
61205;BME280;47068;55.780;37.520;2023-05-19T04:53:42;100709.66;;;12.91;68.03
61205;BME280;47068;55.780;37.520;2023-05-19T04:56:08;100702.91;;;12.87;68.87
61205;BME280;47068;55.780;37.520;2023-05-19T04:58:33;100701.91;;;12.88;69.50
61205;BME280;47068;55.780;37.520;2023-05-19T05:00:59;100684.75;;;12.73;69.66
61205;BME280;47068;55.780;37.520;2023-05-19T05:03:25;100697.44;;;12.89;70.30
61205;BME280;47068;55.780;37.520;2023-05-19T05:05:50;100686.22;;;12.85;70.56
61205;BME280;47068;55.780;37.520;2023-05-19T05:08:16;100700.47;;;12.94;70.34
61205;BME280;47068;55.780;37.520;2023-05-19T05:10:50;100707.03;;;12.99;70.45
61205;BME280;47068;55.780;37.520;2023-05-19T05:13:17;100709.84;;;13.16;69.89
61205;BME280;47068;55.780;37.520;2023-05-19T05:15:43;100703.63;;;13.33;70.00
61205;BME280;47068;55.780;37.520;2023-05-19T05:18:09;100711.31;;;13.36;69.42
61205;BME280;47068;55.780;37.520;2023-05-19T05:20:35;100661.44;;;13.01;69.46
61205;BME280;47068;55.780;37.520;2023-05-19T05:23:00;100712.81;;;13.30;68.34
61205;BME280;47068;55.780;37.520;2023-05-19T05:25:26;100685.97;;;13.14;68.85
61205;BME280;47068;55.780;37.520;2023-05-19T05:27:52;100708.84;;;13.34;69.15
61205;BME280;47068;55.780;37.520;2023-05-19T05:30:18;100708.19;;;13.40;68.70
61205;BME280;47068;55.780;37.520;2023-05-19T05:32:43;100716.59;;;13.46;68.40
61205;BME280;47068;55.780;37.520;2023-05-19T05:35:09;100720.31;;;13.53;68.13
61205;BME280;47068;55.780;37.520;2023-05-19T05:37:34;100714.47;;;13.57;68.57
61205;BME280;47068;55.780;37.520;2023-05-19T05:40:00;100715.16;;;13.59;67.84
61205;BME280;47068;55.780;37.520;2023-05-19T05:42:25;100720.81;;;13.56;68.55
61205;BME280;47068;55.780;37.520;2023-05-19T05:44:51;100722.66;;;13.56;68.42
61205;BME280;47068;55.780;37.520;2023-05-19T05:47:17;100737.03;;;13.55;68.20
61205;BME280;47068;55.780;37.520;2023-05-19T05:49:42;100731.78;;;13.45;67.48
61205;BME280;47068;55.780;37.520;2023-05-19T05:52:11;100729.69;;;13.31;68.56
61205;BME280;47068;55.780;37.520;2023-05-19T05:54:37;100727.06;;;13.39;68.83
61205;BME280;47068;55.780;37.520;2023-05-19T05:57:02;100726.94;;;13.49;68.89
61205;BME280;47068;55.780;37.520;2023-05-19T05:59:28;100732.94;;;13.68;68.78
61205;BME280;47068;55.780;37.520;2023-05-19T06:01:53;100638.88;;;13.13;68.51
61205;BME280;47068;55.780;37.520;2023-05-19T06:04:19;100735.84;;;13.83;68.37
61205;BME280;47068;55.780;37.520;2023-05-19T06:06:45;100741.81;;;14.03;67.05
61205;BME280;47068;55.780;37.520;2023-05-19T06:09:10;100732.81;;;14.20;66.35
61205;BME280;47068;55.780;37.520;2023-05-19T06:11:36;100732.53;;;14.31;65.95
61205;BME280;47068;55.780;37.520;2023-05-19T06:14:02;100739.22;;;14.27;65.99
61205;BME280;47068;55.780;37.520;2023-05-19T06:16:28;100734.25;;;14.40;65.97
61205;BME280;47068;55.780;37.520;2023-05-19T06:18:53;100735.09;;;14.41;65.40
61205;BME280;47068;55.780;37.520;2023-05-19T06:21:19;100719.03;;;14.41;65.71
61205;BME280;47068;55.780;37.520;2023-05-19T06:23:46;100712.03;;;14.56;64.97
61205;BME280;47068;55.780;37.520;2023-05-19T06:26:11;100742.72;;;14.78;64.15
61205;BME280;47068;55.780;37.520;2023-05-19T06:28:36;100741.88;;;14.77;63.07
61205;BME280;47068;55.780;37.520;2023-05-19T06:31:02;100711.56;;;14.69;63.27
61205;BME280;47068;55.780;37.520;2023-05-19T06:33:27;100735.03;;;14.91;62.48
61205;BME280;47068;55.780;37.520;2023-05-19T06:35:54;100739.38;;;15.00;63.05
61205;BME280;47068;55.780;37.520;2023-05-19T06:38:20;100733.69;;;15.11;62.68
61205;BME280;47068;55.780;37.520;2023-05-19T06:40:45;100734.84;;;15.17;62.74
61205;BME280;47068;55.780;37.520;2023-05-19T06:43:10;100738.38;;;15.25;62.76
61205;BME280;47068;55.780;37.520;2023-05-19T06:45:36;100731.00;;;15.19;62.27
61205;BME280;47068;55.780;37.520;2023-05-19T06:48:02;100742.06;;;15.24;62.58
61205;BME280;47068;55.780;37.520;2023-05-19T06:50:27;100736.53;;;15.18;61.93
61205;BME280;47068;55.780;37.520;2023-05-19T06:52:53;100750.09;;;15.24;62.17
61205;BME280;47068;55.780;37.520;2023-05-19T06:55:18;100739.03;;;15.11;62.51
61205;BME280;47068;55.780;37.520;2023-05-19T06:57:44;100734.34;;;15.05;61.98
61205;BME280;47068;55.780;37.520;2023-05-19T07:00:10;100740.72;;;15.12;61.51
61205;BME280;47068;55.780;37.520;2023-05-19T07:02:37;100745.25;;;15.04;62.62
61205;BME280;47068;55.780;37.520;2023-05-19T07:05:02;100744.91;;;15.07;62.22
61205;BME280;47068;55.780;37.520;2023-05-19T07:07:28;100751.44;;;15.12;62.20
61205;BME280;47068;55.780;37.520;2023-05-19T07:09:53;100751.94;;;15.16;61.90
61205;BME280;47068;55.780;37.520;2023-05-19T07:12:19;100750.09;;;15.24;61.48
61205;BME280;47068;55.780;37.520;2023-05-19T07:14:44;100751.41;;;15.36;61.21
61205;BME280;47068;55.780;37.520;2023-05-19T07:17:10;100751.44;;;15.53;60.46
61205;BME280;47068;55.780;37.520;2023-05-19T07:19:35;100748.06;;;15.67;60.08
61205;BME280;47068;55.780;37.520;2023-05-19T07:22:01;100751.00;;;15.96;58.83
61205;BME280;47068;55.780;37.520;2023-05-19T07:24:26;100753.50;;;15.98;56.47
61205;BME280;47068;55.780;37.520;2023-05-19T07:26:52;100750.38;;;15.78;57.47
61205;BME280;47068;55.780;37.520;2023-05-19T07:29:21;100739.75;;;15.93;57.62
61205;BME280;47068;55.780;37.520;2023-05-19T07:31:46;100745.22;;;16.15;56.47
61205;BME280;47068;55.780;37.520;2023-05-19T07:34:12;100758.94;;;16.21;56.98
61205;BME280;47068;55.780;37.520;2023-05-19T07:36:37;100749.88;;;16.22;57.02
61205;BME280;47068;55.780;37.520;2023-05-19T07:39:03;100752.25;;;16.25;56.10
61205;BME280;47068;55.780;37.520;2023-05-19T07:41:28;100758.50;;;16.40;54.06
61205;BME280;47068;55.780;37.520;2023-05-19T07:43:54;100756.66;;;16.40;53.32
61205;BME280;47068;55.780;37.520;2023-05-19T07:46:20;100754.88;;;17.32;50.15
61205;BME280;47068;55.780;37.520;2023-05-19T07:48:46;100765.19;;;17.81;48.67
61205;BME280;47068;55.780;37.520;2023-05-19T07:51:12;100760.34;;;18.20;46.70
61205;BME280;47068;55.780;37.520;2023-05-19T07:53:37;100756.44;;;18.37;44.73
61205;BME280;47068;55.780;37.520;2023-05-19T07:56:03;100748.84;;;18.77;43.46
61205;BME280;47068;55.780;37.520;2023-05-19T07:58:29;100744.78;;;20.27;39.73
61205;BME280;47068;55.780;37.520;2023-05-19T08:00:57;100738.28;;;20.69;39.27
61205;BME280;47068;55.780;37.520;2023-05-19T08:03:24;100744.78;;;21.93;37.44
61205;BME280;47068;55.780;37.520;2023-05-19T08:05:49;100748.19;;;23.15;34.94
61205;BME280;47068;55.780;37.520;2023-05-19T08:08:15;100750.19;;;23.27;34.82
61205;BME280;47068;55.780;37.520;2023-05-19T08:10:44;100738.31;;;23.21;33.75
61205;BME280;47068;55.780;37.520;2023-05-19T08:13:10;100741.88;;;23.22;34.70
61205;BME280;47068;55.780;37.520;2023-05-19T08:15:35;100745.47;;;23.15;34.10
61205;BME280;47068;55.780;37.520;2023-05-19T08:18:01;100747.84;;;23.05;31.51
61205;BME280;47068;55.780;37.520;2023-05-19T08:20:27;100734.25;;;23.05;32.10
61205;BME280;47068;55.780;37.520;2023-05-19T08:22:53;100739.25;;;23.33;31.76
61205;BME280;47068;55.780;37.520;2023-05-19T08:25:18;100745.84;;;23.19;31.88
61205;BME280;47068;55.780;37.520;2023-05-19T08:27:44;100742.41;;;23.05;31.45
61205;BME280;47068;55.780;37.520;2023-05-19T08:30:09;100743.03;;;22.69;30.76
61205;BME280;47068;55.780;37.520;2023-05-19T08:32:35;100742.50;;;22.48;31.91
61205;BME280;47068;55.780;37.520;2023-05-19T08:35:00;100748.25;;;22.26;30.91
61205;BME280;47068;55.780;37.520;2023-05-19T08:37:25;100742.91;;;21.87;30.80
61205;BME280;47068;55.780;37.520;2023-05-19T08:39:51;100737.78;;;21.39;32.59
61205;BME280;47068;55.780;37.520;2023-05-19T08:42:16;100742.53;;;21.11;32.89
61205;BME280;47068;55.780;37.520;2023-05-19T08:44:41;100753.34;;;20.98;33.01
61205;BME280;47068;55.780;37.520;2023-05-19T08:47:08;100748.34;;;20.88;32.34
61205;BME280;47068;55.780;37.520;2023-05-19T08:49:41;100745.00;;;20.86;31.94
61205;BME280;47068;55.780;37.520;2023-05-19T08:54:36;100734.78;;;20.21;32.85
61205;BME280;47068;55.780;37.520;2023-05-19T08:57:02;100743.13;;;20.26;33.14
61205;BME280;47068;55.780;37.520;2023-05-19T08:59:29;100736.44;;;20.22;32.62
61205;BME280;47068;55.780;37.520;2023-05-19T09:01:54;100738.84;;;19.97;31.98
61205;BME280;47068;55.780;37.520;2023-05-19T09:04:20;100739.72;;;19.70;32.64
61205;BME280;47068;55.780;37.520;2023-05-19T09:06:46;100742.16;;;19.43;33.10
61205;BME280;47068;55.780;37.520;2023-05-19T09:09:12;100745.16;;;19.27;32.81
61205;BME280;47068;55.780;37.520;2023-05-19T09:11:37;100746.84;;;19.07;33.31
61205;BME280;47068;55.780;37.520;2023-05-19T09:14:03;100748.13;;;18.68;33.90
61205;BME280;47068;55.780;37.520;2023-05-19T09:16:29;100730.47;;;18.66;34.37
61205;BME280;47068;55.780;37.520;2023-05-19T09:18:55;100725.09;;;18.66;34.20
61205;BME280;47068;55.780;37.520;2023-05-19T09:21:25;100729.25;;;18.68;34.50
61205;BME280;47068;55.780;37.520;2023-05-19T09:23:51;100732.66;;;18.77;34.94
61205;BME280;47068;55.780;37.520;2023-05-19T09:26:20;100724.56;;;18.77;35.23
61205;BME280;47068;55.780;37.520;2023-05-19T09:28:47;100735.78;;;19.02;35.75
61205;BME280;47068;55.780;37.520;2023-05-19T09:31:12;100728.91;;;19.20;35.96
61205;BME280;47068;55.780;37.520;2023-05-19T09:33:38;100722.59;;;19.35;35.38
61205;BME280;47068;55.780;37.520;2023-05-19T09:36:04;100724.84;;;19.52;35.44
61205;BME280;47068;55.780;37.520;2023-05-19T09:38:32;100724.53;;;19.69;34.99
61205;BME280;47068;55.780;37.520;2023-05-19T09:40:59;100725.03;;;19.51;33.92
61205;BME280;47068;55.780;37.520;2023-05-19T09:43:29;100724.41;;;19.49;34.70
61205;BME280;47068;55.780;37.520;2023-05-19T09:45:58;100721.00;;;19.68;34.82
61205;BME280;47068;55.780;37.520;2023-05-19T09:48:24;100711.50;;;19.79;34.65
61205;BME280;47068;55.780;37.520;2023-05-19T09:50:50;100713.03;;;19.94;34.66
61205;BME280;47068;55.780;37.520;2023-05-19T09:53:16;100721.00;;;19.68;33.83
61205;BME280;47068;55.780;37.520;2023-05-19T09:55:42;100719.09;;;19.62;34.80
61205;BME280;47068;55.780;37.520;2023-05-19T09:58:08;100709.25;;;19.82;34.70
61205;BME280;47068;55.780;37.520;2023-05-19T10:00:33;100704.75;;;19.96;32.76
61205;BME280;47068;55.780;37.520;2023-05-19T10:02:59;100704.28;;;19.92;34.04
61205;BME280;47068;55.780;37.520;2023-05-19T10:05:26;100708.63;;;19.87;34.36
61205;BME280;47068;55.780;37.520;2023-05-19T10:07:52;100709.41;;;19.74;32.67
61205;BME280;47068;55.780;37.520;2023-05-19T10:10:18;100710.31;;;19.53;33.54
61205;BME280;47068;55.780;37.520;2023-05-19T10:12:45;100709.47;;;19.53;33.41
61205;BME280;47068;55.780;37.520;2023-05-19T10:15:11;100692.69;;;19.36;33.76
61205;BME280;47068;55.780;37.520;2023-05-19T10:17:37;100707.63;;;19.32;34.44
61205;BME280;47068;55.780;37.520;2023-05-19T10:20:03;100704.03;;;19.25;32.58
61205;BME280;47068;55.780;37.520;2023-05-19T10:22:31;100706.44;;;19.13;33.41
61205;BME280;47068;55.780;37.520;2023-05-19T10:24:56;100704.53;;;19.07;33.25
61205;BME280;47068;55.780;37.520;2023-05-19T10:27:22;100695.41;;;19.08;33.97
61205;BME280;47068;55.780;37.520;2023-05-19T10:29:48;100689.53;;;19.26;33.05
61205;BME280;47068;55.780;37.520;2023-05-19T10:32:17;100699.09;;;19.50;33.23
61205;BME280;47068;55.780;37.520;2023-05-19T10:35:00;100700.13;;;19.49;32.61
61205;BME280;47068;55.780;37.520;2023-05-19T10:37:43;100691.91;;;19.63;32.93
61205;BME280;47068;55.780;37.520;2023-05-19T10:40:17;100700.06;;;19.77;33.19
61205;BME280;47068;55.780;37.520;2023-05-19T10:42:56;100687.53;;;19.62;32.11
61205;BME280;47068;55.780;37.520;2023-05-19T10:45:26;100705.28;;;19.50;32.37
61205;BME280;47068;55.780;37.520;2023-05-19T10:47:53;100700.22;;;19.69;33.35
61205;BME280;47068;55.780;37.520;2023-05-19T10:50:21;100705.75;;;19.54;31.82
61205;BME280;47068;55.780;37.520;2023-05-19T10:52:51;100706.13;;;19.51;32.73
61205;BME280;47068;55.780;37.520;2023-05-19T10:55:17;100712.72;;;19.70;32.78
61205;BME280;47068;55.780;37.520;2023-05-19T10:58:02;100700.97;;;19.90;32.80
61205;BME280;47068;55.780;37.520;2023-05-19T11:00:30;100700.34;;;19.88;32.52
61205;BME280;47068;55.780;37.520;2023-05-19T11:03:11;100704.09;;;19.94;32.65
61205;BME280;47068;55.780;37.520;2023-05-19T11:05:37;100701.63;;;19.99;32.33
61205;BME280;47068;55.780;37.520;2023-05-19T11:08:04;100687.91;;;20.00;31.66
61205;BME280;47068;55.780;37.520;2023-05-19T11:10:31;100697.34;;;20.11;31.83
61205;BME280;47068;55.780;37.520;2023-05-19T11:12:57;100696.13;;;20.27;32.14
61205;BME280;47068;55.780;37.520;2023-05-19T11:15:23;100692.41;;;20.28;31.94
61205;BME280;47068;55.780;37.520;2023-05-19T11:17:49;100694.72;;;20.31;31.92
61205;BME280;47068;55.780;37.520;2023-05-19T11:20:25;100695.72;;;20.30;32.04
61205;BME280;47068;55.780;37.520;2023-05-19T11:23:06;100690.47;;;20.15;32.40
61205;BME280;47068;55.780;37.520;2023-05-19T11:25:44;100692.31;;;20.08;32.16
61205;BME280;47068;55.780;37.520;2023-05-19T11:28:11;100702.69;;;19.98;33.28
61205;BME280;47068;55.780;37.520;2023-05-19T11:30:38;100688.97;;;20.06;32.52
61205;BME280;47068;55.780;37.520;2023-05-19T11:33:04;100696.88;;;20.08;31.92
61205;BME280;47068;55.780;37.520;2023-05-19T11:35:30;100692.31;;;20.08;30.96
61205;BME280;47068;55.780;37.520;2023-05-19T11:37:57;100699.38;;;20.02;31.26
61205;BME280;47068;55.780;37.520;2023-05-19T11:40:22;100697.06;;;19.99;31.79
61205;BME280;47068;55.780;37.520;2023-05-19T11:42:49;100696.19;;;19.92;31.69
61205;BME280;47068;55.780;37.520;2023-05-19T11:45:14;100705.59;;;19.96;31.40
61205;BME280;47068;55.780;37.520;2023-05-19T11:47:44;100696.88;;;20.01;31.50
61205;BME280;47068;55.780;37.520;2023-05-19T11:50:10;100701.88;;;20.04;31.32
61205;BME280;47068;55.780;37.520;2023-05-19T11:52:36;100714.06;;;19.93;30.18
61205;BME280;47068;55.780;37.520;2023-05-19T11:55:02;100697.16;;;19.78;30.22
61205;BME280;47068;55.780;37.520;2023-05-19T11:57:27;100711.44;;;19.72;30.04
61205;BME280;47068;55.780;37.520;2023-05-19T11:59:52;100707.13;;;19.78;30.61
61205;BME280;47068;55.780;37.520;2023-05-19T12:02:21;100709.25;;;19.82;30.80
61205;BME280;47068;55.780;37.520;2023-05-19T12:04:48;100710.50;;;19.86;30.12
61205;BME280;47068;55.780;37.520;2023-05-19T12:07:14;100711.59;;;19.98;30.27
61205;BME280;47068;55.780;37.520;2023-05-19T12:09:42;100716.19;;;19.98;29.01
61205;BME280;47068;55.780;37.520;2023-05-19T12:12:07;100712.16;;;19.87;28.97
61205;BME280;47068;55.780;37.520;2023-05-19T12:14:33;100723.13;;;19.79;29.08
61205;BME280;47068;55.780;37.520;2023-05-19T12:17:08;100715.63;;;19.75;28.34
61205;BME280;47068;55.780;37.520;2023-05-19T12:19:34;100714.94;;;19.66;29.17
61205;BME280;47068;55.780;37.520;2023-05-19T12:21:59;100715.78;;;19.66;28.87
61205;BME280;47068;55.780;37.520;2023-05-19T12:24:28;100716.63;;;19.67;28.78
61205;BME280;47068;55.780;37.520;2023-05-19T12:27:03;100714.19;;;19.79;29.04
61205;BME280;47068;55.780;37.520;2023-05-19T12:29:30;100716.28;;;19.77;27.84
61205;BME280;47068;55.780;37.520;2023-05-19T12:31:55;100716.06;;;19.78;28.41
61205;BME280;47068;55.780;37.520;2023-05-19T12:34:20;100718.56;;;19.80;28.76
61205;BME280;47068;55.780;37.520;2023-05-19T12:36:47;100717.31;;;19.76;28.43
61205;BME280;47068;55.780;37.520;2023-05-19T12:39:12;100715.41;;;19.70;29.47
61205;BME280;47068;55.780;37.520;2023-05-19T12:41:38;100715.22;;;19.78;29.12
61205;BME280;47068;55.780;37.520;2023-05-19T12:44:12;100719.19;;;19.75;28.57
61205;BME280;47068;55.780;37.520;2023-05-19T12:46:38;100726.78;;;19.65;29.73
61205;BME280;47068;55.780;37.520;2023-05-19T12:49:04;100726.22;;;19.70;29.76
61205;BME280;47068;55.780;37.520;2023-05-19T12:51:29;100720.31;;;19.59;29.00
61205;BME280;47068;55.780;37.520;2023-05-19T12:53:54;100725.63;;;19.46;29.89
61205;BME280;47068;55.780;37.520;2023-05-19T12:56:20;100720.69;;;19.50;30.58
61205;BME280;47068;55.780;37.520;2023-05-19T12:58:46;100719.63;;;19.51;30.60
61205;BME280;47068;55.780;37.520;2023-05-19T13:01:15;100723.00;;;19.59;30.46